WAT2112 RKJY-RJFK
Flight info
| Callsign | WAT2112 |
|---|---|
| Flight time | 0h 48m |
| Altitude | 33000 |
| Route | POVOR1R POVOR DCT SAMDO DCT KAZSA A582 HKC |
| Aircraft | B738/M-SDE2E3FGHIRWXY/LB1 |
Departure
| Time | 2026-04-28 08:49 |
|---|---|
| Airport | Yeosu Airport (RKJY) |
Arrival
| Time | 2026-04-28 09:38 |
|---|---|
| Airport | Kagoshima Airport (RJFK) |
| Time | Latitude | Longitude | Altitude | Speed | Heading |
|---|---|---|---|---|---|
| 2026-04-28 08:34 | 34.84200 | 127.61385 | 98 ft | 0 kts | 247° |
| 2026-04-28 08:43 | 34.84203 | 127.61394 | 90 ft | 4 kts | 248° |
| 2026-04-28 08:43 | 34.84213 | 127.61425 | 95 ft | 4 kts | 244° |
| 2026-04-28 08:43 | 34.84225 | 127.61454 | 95 ft | 4 kts | 240° |
| 2026-04-28 08:44 | 34.84236 | 127.61477 | 96 ft | 1 kts | 238° |
| 2026-04-28 08:44 | 34.84238 | 127.61481 | 96 ft | 0 kts | 238° |
| 2026-04-28 08:46 | 34.84238 | 127.61480 | 96 ft | 0 kts | 238° |
| 2026-04-28 08:46 | 34.84232 | 127.61475 | 95 ft | 2 kts | 214° |
| 2026-04-28 08:46 | 34.84212 | 127.61480 | 95 ft | 5 kts | 158° |
| 2026-04-28 08:46 | 34.84163 | 127.61504 | 95 ft | 10 kts | 158° |
| 2026-04-28 08:47 | 34.84076 | 127.61546 | 93 ft | 17 kts | 158° |
| 2026-04-28 08:47 | 34.83945 | 127.61613 | 88 ft | 24 kts | 158° |
| 2026-04-28 08:47 | 34.83773 | 127.61696 | 69 ft | 29 kts | 159° |
| 2026-04-28 08:47 | 34.83589 | 127.61786 | 58 ft | 29 kts | 158° |
| 2026-04-28 08:48 | 34.83414 | 127.61870 | 46 ft | 23 kts | 158° |
| 2026-04-28 08:48 | 34.83334 | 127.61998 | 37 ft | 21 kts | 114° |
| 2026-04-28 08:48 | 34.83344 | 127.62119 | 33 ft | 9 kts | 65° |
| 2026-04-28 08:48 | 34.83390 | 127.62137 | 36 ft | 7 kts | 334° |
| 2026-04-28 08:49 | 34.83479 | 127.62093 | 45 ft | 39 kts | 338° |
| 2026-04-28 08:49 | 34.83964 | 127.61856 | 87 ft | 109 kts | 338° |
| 2026-04-28 08:49 | 34.84842 | 127.61453 | 316 ft | 147 kts | 338° |
| 2026-04-28 08:49 | 34.85736 | 127.61038 | 1332 ft | 133 kts | 337° |
| 2026-04-28 08:50 | 34.86609 | 127.60603 | 2107 ft | 135 kts | 338° |
| 2026-04-28 08:50 | 34.87467 | 127.60189 | 2955 ft | 132 kts | 337° |
| 2026-04-28 08:50 | 34.88374 | 127.59747 | 3398 ft | 151 kts | 335° |
| 2026-04-28 08:50 | 34.89454 | 127.59226 | 3604 ft | 183 kts | 337° |
| 2026-04-28 08:51 | 34.90727 | 127.58654 | 3893 ft | 205 kts | 342° |
| 2026-04-28 08:51 | 34.92203 | 127.58620 | 4422 ft | 221 kts | 4° |
| 2026-04-28 08:51 | 34.93690 | 127.59164 | 5140 ft | 234 kts | 19° |
| 2026-04-28 08:51 | 34.95201 | 127.59947 | 5866 ft | 241 kts | 24° |
| 2026-04-28 08:52 | 34.96507 | 127.61383 | 6346 ft | 273 kts | 52° |
| 2026-04-28 08:52 | 34.97185 | 127.63672 | 6755 ft | 301 kts | 83° |
| 2026-04-28 08:52 | 34.96923 | 127.66210 | 7490 ft | 301 kts | 111° |
| 2026-04-28 08:52 | 34.95795 | 127.68305 | 7929 ft | 295 kts | 142° |
| 2026-04-28 08:53 | 34.93987 | 127.69474 | 8020 ft | 295 kts | 173° |
| 2026-04-28 08:53 | 34.91977 | 127.69681 | 8040 ft | 288 kts | 185° |
| 2026-04-28 08:53 | 34.89976 | 127.69674 | 8029 ft | 285 kts | 186° |
| 2026-04-28 08:53 | 34.87996 | 127.69658 | 8028 ft | 284 kts | 186° |
| 2026-04-28 08:54 | 34.86036 | 127.69671 | 8020 ft | 283 kts | 185° |
| 2026-04-28 08:54 | 34.84053 | 127.69700 | 8170 ft | 289 kts | 184° |
| 2026-04-28 08:54 | 34.82035 | 127.69743 | 9123 ft | 289 kts | 184° |
| 2026-04-28 08:54 | 34.80032 | 127.69794 | 10186 ft | 288 kts | 185° |
| 2026-04-28 08:55 | 34.78004 | 127.69585 | 10689 ft | 300 kts | 200° |
| 2026-04-28 08:55 | 34.76029 | 127.68560 | 11006 ft | 316 kts | 212° |
| 2026-04-28 08:55 | 34.74029 | 127.67353 | 11772 ft | 323 kts | 211° |
| 2026-04-28 08:55 | 34.71922 | 127.66388 | 12651 ft | 334 kts | 198° |
| 2026-04-28 08:56 | 34.69577 | 127.66058 | 13568 ft | 346 kts | 186° |
| 2026-04-28 08:56 | 34.67141 | 127.66317 | 14422 ft | 355 kts | 179° |
| 2026-04-28 08:56 | 34.64683 | 127.66734 | 15326 ft | 357 kts | 179° |
| 2026-04-28 08:56 | 34.62212 | 127.67179 | 16239 ft | 360 kts | 180° |
| 2026-04-28 08:57 | 34.59724 | 127.67623 | 17113 ft | 362 kts | 180° |
| 2026-04-28 08:57 | 34.57215 | 127.68060 | 17991 ft | 365 kts | 181° |
| 2026-04-28 08:57 | 34.54683 | 127.68490 | 18776 ft | 369 kts | 182° |
| 2026-04-28 08:57 | 34.52128 | 127.68917 | 19467 ft | 373 kts | 182° |
| 2026-04-28 08:58 | 34.49533 | 127.69346 | 20147 ft | 378 kts | 182° |
| 2026-04-28 08:58 | 34.46950 | 127.69771 | 20824 ft | 382 kts | 182° |
| 2026-04-28 08:58 | 34.44299 | 127.70207 | 21490 ft | 386 kts | 182° |
| 2026-04-28 08:58 | 34.41611 | 127.70649 | 22099 ft | 391 kts | 182° |
| 2026-04-28 08:59 | 34.38894 | 127.71095 | 22712 ft | 396 kts | 182° |
| 2026-04-28 08:59 | 34.36147 | 127.71548 | 23344 ft | 400 kts | 182° |
| 2026-04-28 08:59 | 34.33406 | 127.72000 | 23873 ft | 404 kts | 182° |
| 2026-04-28 08:59 | 34.30610 | 127.72458 | 24398 ft | 407 kts | 182° |
| 2026-04-28 09:00 | 34.27789 | 127.73019 | 24921 ft | 417 kts | 176° |
| 2026-04-28 09:00 | 34.24987 | 127.74162 | 25434 ft | 433 kts | 166° |
| 2026-04-28 09:00 | 34.22279 | 127.75929 | 25933 ft | 450 kts | 155° |
| 2026-04-28 09:00 | 34.19695 | 127.78129 | 26396 ft | 457 kts | 153° |
| 2026-04-28 09:01 | 34.17158 | 127.80392 | 26845 ft | 461 kts | 152° |
| 2026-04-28 09:01 | 34.14573 | 127.82726 | 27287 ft | 465 kts | 152° |
| 2026-04-28 09:01 | 34.11964 | 127.85070 | 27730 ft | 469 kts | 153° |
| 2026-04-28 09:01 | 34.09329 | 127.87414 | 28180 ft | 472 kts | 153° |
| 2026-04-28 09:02 | 34.06672 | 127.89756 | 28611 ft | 475 kts | 153° |
| 2026-04-28 09:02 | 34.03990 | 127.92104 | 29027 ft | 478 kts | 154° |
| 2026-04-28 09:02 | 34.01273 | 127.94472 | 29448 ft | 481 kts | 154° |
| 2026-04-28 09:02 | 33.98574 | 127.96821 | 29852 ft | 484 kts | 153° |
| 2026-04-28 09:03 | 33.95836 | 127.99203 | 30291 ft | 485 kts | 153° |
| 2026-04-28 09:03 | 33.93095 | 128.01587 | 30752 ft | 484 kts | 153° |
| 2026-04-28 09:03 | 33.90371 | 128.03958 | 31289 ft | 481 kts | 153° |
| 2026-04-28 09:03 | 33.87674 | 128.06308 | 31966 ft | 475 kts | 153° |
| 2026-04-28 09:04 | 33.84979 | 128.08645 | 32167 ft | 479 kts | 153° |
| 2026-04-28 09:04 | 33.82277 | 128.10984 | 32425 ft | 478 kts | 153° |
| 2026-04-28 09:04 | 33.79606 | 128.13297 | 32663 ft | 475 kts | 153° |
| 2026-04-28 09:04 | 33.76934 | 128.15611 | 32910 ft | 472 kts | 153° |
| 2026-04-28 09:05 | 33.74265 | 128.17918 | 33057 ft | 474 kts | 153° |
| 2026-04-28 09:05 | 33.68884 | 128.22561 | 33041 ft | 475 kts | 153° |
| 2026-04-28 09:06 | 33.63548 | 128.27167 | 33050 ft | 473 kts | 153° |
| 2026-04-28 09:06 | 33.58452 | 128.32180 | 33039 ft | 485 kts | 140° |
| 2026-04-28 09:06 | 33.56319 | 128.35369 | 33039 ft | 495 kts | 129° |
| 2026-04-28 09:07 | 33.54496 | 128.38881 | 33057 ft | 497 kts | 127° |
| 2026-04-28 09:07 | 33.50966 | 128.46028 | 33043 ft | 498 kts | 126° |
| 2026-04-28 09:08 | 33.47416 | 128.53178 | 33051 ft | 498 kts | 127° |
| 2026-04-28 09:08 | 33.43846 | 128.60234 | 33050 ft | 498 kts | 127° |
| 2026-04-28 09:09 | 33.40224 | 128.67321 | 33032 ft | 498 kts | 127° |
| 2026-04-28 09:09 | 33.36614 | 128.74366 | 33051 ft | 498 kts | 128° |
| 2026-04-28 09:10 | 33.32986 | 128.81436 | 33043 ft | 498 kts | 128° |
| 2026-04-28 09:10 | 33.29362 | 128.88491 | 33043 ft | 497 kts | 128° |
| 2026-04-28 09:11 | 33.25737 | 128.95533 | 33036 ft | 497 kts | 128° |
| 2026-04-28 09:11 | 33.22137 | 129.02515 | 33046 ft | 496 kts | 128° |
| 2026-04-28 09:12 | 33.18507 | 129.09540 | 33039 ft | 496 kts | 128° |
| 2026-04-28 09:12 | 33.14874 | 129.16560 | 33028 ft | 496 kts | 128° |
| 2026-04-28 09:13 | 33.11270 | 129.23506 | 33033 ft | 495 kts | 128° |
| 2026-04-28 09:13 | 33.07629 | 129.30512 | 33033 ft | 496 kts | 128° |
| 2026-04-28 09:14 | 33.03984 | 129.37512 | 33021 ft | 496 kts | 127° |
| 2026-04-28 09:14 | 33.00356 | 129.44466 | 32548 ft | 499 kts | 128° |
| 2026-04-28 09:14 | 32.98521 | 129.47979 | 31936 ft | 497 kts | 128° |
| 2026-04-28 09:15 | 32.96691 | 129.51479 | 31303 ft | 496 kts | 128° |
| 2026-04-28 09:15 | 32.94874 | 129.54955 | 30831 ft | 492 kts | 128° |
| 2026-04-28 09:15 | 32.93069 | 129.58405 | 30332 ft | 489 kts | 128° |
| 2026-04-28 09:15 | 32.91275 | 129.61829 | 29786 ft | 486 kts | 128° |
| 2026-04-28 09:16 | 32.89514 | 129.65186 | 29228 ft | 482 kts | 128° |
| 2026-04-28 09:16 | 32.87745 | 129.68555 | 28670 ft | 477 kts | 128° |
| 2026-04-28 09:16 | 32.85992 | 129.71889 | 28187 ft | 472 kts | 128° |
| 2026-04-28 09:16 | 32.84258 | 129.75186 | 27670 ft | 468 kts | 128° |
| 2026-04-28 09:17 | 32.82536 | 129.78455 | 27170 ft | 464 kts | 128° |
| 2026-04-28 09:17 | 32.80825 | 129.81694 | 26675 ft | 459 kts | 128° |
| 2026-04-28 09:17 | 32.79136 | 129.84894 | 26169 ft | 456 kts | 128° |
| 2026-04-28 09:17 | 32.77482 | 129.88032 | 25716 ft | 452 kts | 128° |
| 2026-04-28 09:18 | 32.75814 | 129.91189 | 25206 ft | 450 kts | 128° |
| 2026-04-28 09:18 | 32.74153 | 129.94328 | 24711 ft | 448 kts | 128° |
| 2026-04-28 09:18 | 32.72493 | 129.97460 | 24215 ft | 446 kts | 128° |
| 2026-04-28 09:18 | 32.70841 | 130.00574 | 23722 ft | 444 kts | 128° |
| 2026-04-28 09:19 | 32.69198 | 130.03672 | 23145 ft | 442 kts | 128° |
| 2026-04-28 09:19 | 32.67565 | 130.06750 | 22637 ft | 438 kts | 128° |
| 2026-04-28 09:19 | 32.65947 | 130.09800 | 22134 ft | 434 kts | 128° |
| 2026-04-28 09:19 | 32.64346 | 130.12813 | 21659 ft | 430 kts | 128° |
| 2026-04-28 09:20 | 32.62779 | 130.15759 | 21192 ft | 426 kts | 128° |
| 2026-04-28 09:20 | 32.61200 | 130.18723 | 20723 ft | 423 kts | 128° |
| 2026-04-28 09:20 | 32.59478 | 130.21502 | 20243 ft | 411 kts | 140° |
| 2026-04-28 09:20 | 32.57330 | 130.23630 | 19829 ft | 395 kts | 154° |
| 2026-04-28 09:21 | 32.54955 | 130.25134 | 19442 ft | 378 kts | 167° |
| 2026-04-28 09:21 | 32.52492 | 130.26123 | 19015 ft | 371 kts | 170° |
| 2026-04-28 09:21 | 32.50033 | 130.27065 | 18576 ft | 369 kts | 171° |
| 2026-04-28 09:21 | 32.47620 | 130.27988 | 18091 ft | 368 kts | 170° |
| 2026-04-28 09:22 | 32.45180 | 130.28932 | 17596 ft | 366 kts | 171° |
| 2026-04-28 09:22 | 32.42767 | 130.29869 | 17130 ft | 362 kts | 169° |
| 2026-04-28 09:22 | 32.40376 | 130.30805 | 16682 ft | 360 kts | 169° |
| 2026-04-28 09:22 | 32.38007 | 130.31736 | 16239 ft | 357 kts | 169° |
| 2026-04-28 09:23 | 32.35656 | 130.32663 | 15807 ft | 355 kts | 169° |
| 2026-04-28 09:23 | 32.33324 | 130.33582 | 15378 ft | 352 kts | 168° |
| 2026-04-28 09:23 | 32.31036 | 130.34481 | 14957 ft | 350 kts | 168° |
| 2026-04-28 09:23 | 32.28727 | 130.35390 | 14527 ft | 348 kts | 168° |
| 2026-04-28 09:24 | 32.26439 | 130.36291 | 14111 ft | 345 kts | 168° |
| 2026-04-28 09:24 | 32.24167 | 130.37184 | 13648 ft | 343 kts | 167° |
| 2026-04-28 09:24 | 32.21908 | 130.38072 | 13187 ft | 341 kts | 167° |
| 2026-04-28 09:24 | 32.19668 | 130.38952 | 12750 ft | 338 kts | 167° |
| 2026-04-28 09:25 | 32.17439 | 130.39828 | 12320 ft | 335 kts | 167° |
| 2026-04-28 09:25 | 32.15266 | 130.40680 | 11884 ft | 332 kts | 167° |
| 2026-04-28 09:25 | 32.13081 | 130.41539 | 11488 ft | 329 kts | 167° |
| 2026-04-28 09:25 | 32.10915 | 130.42386 | 11150 ft | 325 kts | 167° |
| 2026-04-28 09:26 | 32.08783 | 130.43213 | 10803 ft | 321 kts | 167° |
| 2026-04-28 09:26 | 32.06675 | 130.44028 | 10497 ft | 316 kts | 166° |
| 2026-04-28 09:26 | 32.04623 | 130.44828 | 10378 ft | 305 kts | 167° |
| 2026-04-28 09:26 | 32.02636 | 130.45591 | 10236 ft | 296 kts | 167° |
| 2026-04-28 09:27 | 31.98819 | 130.47073 | 9892 ft | 283 kts | 167° |
| 2026-04-28 09:27 | 31.96975 | 130.47787 | 9573 ft | 281 kts | 166° |
| 2026-04-28 09:27 | 31.95119 | 130.48504 | 9268 ft | 280 kts | 166° |
| 2026-04-28 09:28 | 31.93269 | 130.49216 | 8958 ft | 278 kts | 166° |
| 2026-04-28 09:28 | 31.91432 | 130.49925 | 8661 ft | 278 kts | 166° |
| 2026-04-28 09:28 | 31.89599 | 130.50632 | 8363 ft | 277 kts | 166° |
| 2026-04-28 09:28 | 31.87760 | 130.51341 | 8052 ft | 277 kts | 166° |
| 2026-04-28 09:29 | 31.85933 | 130.52046 | 7759 ft | 276 kts | 166° |
| 2026-04-28 09:29 | 31.84107 | 130.52750 | 7471 ft | 276 kts | 166° |
| 2026-04-28 09:29 | 31.82281 | 130.53457 | 7150 ft | 276 kts | 166° |
| 2026-04-28 09:29 | 31.80456 | 130.54122 | 6857 ft | 274 kts | 166° |
| 2026-04-28 09:30 | 31.78649 | 130.54834 | 6552 ft | 274 kts | 165° |
| 2026-04-28 09:30 | 31.76837 | 130.55545 | 6228 ft | 275 kts | 165° |
| 2026-04-28 09:30 | 31.75048 | 130.56239 | 5925 ft | 274 kts | 165° |
| 2026-04-28 09:30 | 31.73241 | 130.56936 | 5635 ft | 273 kts | 166° |
| 2026-04-28 09:31 | 31.71443 | 130.57638 | 5355 ft | 273 kts | 162° |
| 2026-04-28 09:31 | 31.69860 | 130.58879 | 5032 ft | 280 kts | 131° |
| 2026-04-28 09:31 | 31.68960 | 130.60871 | 4938 ft | 272 kts | 110° |
| 2026-04-28 09:31 | 31.68409 | 130.62971 | 4811 ft | 266 kts | 107° |
| 2026-04-28 09:32 | 31.67901 | 130.65037 | 4684 ft | 259 kts | 106° |
| 2026-04-28 09:32 | 31.67397 | 130.67039 | 4572 ft | 252 kts | 107° |
| 2026-04-28 09:32 | 31.66896 | 130.68986 | 4469 ft | 245 kts | 107° |
| 2026-04-28 09:32 | 31.66405 | 130.70877 | 4367 ft | 239 kts | 107° |
| 2026-04-28 09:33 | 31.65922 | 130.72717 | 4221 ft | 234 kts | 107° |
| 2026-04-28 09:33 | 31.65475 | 130.74546 | 4023 ft | 232 kts | 98° |
| 2026-04-28 09:33 | 31.65691 | 130.76344 | 3822 ft | 223 kts | 60° |
| 2026-04-28 09:33 | 31.66439 | 130.77910 | 3655 ft | 218 kts | 56° |
| 2026-04-28 09:34 | 31.67259 | 130.79364 | 3435 ft | 209 kts | 40° |
| 2026-04-28 09:34 | 31.68507 | 130.79955 | 3208 ft | 189 kts | 351° |
| 2026-04-28 09:34 | 31.69649 | 130.79351 | 3024 ft | 179 kts | 324° |
| 2026-04-28 09:34 | 31.70706 | 130.78575 | 2714 ft | 180 kts | 327° |
| 2026-04-28 09:35 | 31.71769 | 130.77834 | 2536 ft | 172 kts | 327° |
| 2026-04-28 09:35 | 31.72762 | 130.77131 | 2385 ft | 163 kts | 327° |
| 2026-04-28 09:35 | 31.73714 | 130.76461 | 2134 ft | 160 kts | 327° |
| 2026-04-28 09:35 | 31.74656 | 130.75812 | 1901 ft | 155 kts | 326° |
| 2026-04-28 09:36 | 31.75546 | 130.75200 | 1755 ft | 140 kts | 327° |
| 2026-04-28 09:36 | 31.76367 | 130.74631 | 1541 ft | 134 kts | 326° |
| 2026-04-28 09:36 | 31.77142 | 130.74096 | 1341 ft | 127 kts | 326° |
| 2026-04-28 09:36 | 31.77651 | 130.73765 | 1254 ft | 128 kts | 327° |
| 2026-04-28 09:37 | 31.78444 | 130.73244 | 1049 ft | 137 kts | 326° |
| 2026-04-28 09:37 | 31.79240 | 130.72679 | 960 ft | 130 kts | 327° |
| 2026-04-28 09:37 | 31.79974 | 130.72184 | 910 ft | 107 kts | 331° |
| 2026-04-28 09:37 | 31.80493 | 130.71834 | 917 ft | 64 kts | 330° |
| 2026-04-28 09:38 | 31.80717 | 130.71681 | 917 ft | 25 kts | 322° |
| 2026-04-28 09:38 | 31.80829 | 130.71535 | 917 ft | 23 kts | 305° |
| 2026-04-28 09:38 | 31.80844 | 130.71427 | 912 ft | 13 kts | 234° |
| 2026-04-28 09:38 | 31.80774 | 130.71416 | 911 ft | 11 kts | 153° |
| 2026-04-28 09:39 | 31.80701 | 130.71466 | 908 ft | 13 kts | 149° |
| 2026-04-28 09:39 | 31.80620 | 130.71522 | 906 ft | 13 kts | 150° |
| 2026-04-28 09:39 | 31.80540 | 130.71573 | 905 ft | 13 kts | 152° |
| 2026-04-28 09:39 | 31.80479 | 130.71566 | 902 ft | 11 kts | 243° |
| 2026-04-28 09:40 | 31.80445 | 130.71492 | 901 ft | 6 kts | 241° |
| 2026-04-28 09:40 | 31.80437 | 130.71475 | 901 ft | 0 kts | 241° |